createdAt,value
2022-11-20T00:01:08.152Z,18.52
2022-11-20T00:03:35.308Z,21.42
2022-11-20T00:06:04.197Z,16.83
2022-11-20T00:08:31.175Z,17.38
2022-11-20T00:10:58.340Z,19.02
2022-11-20T00:13:25.399Z,19.02
2022-11-20T00:15:59.603Z,15.38
2022-11-20T00:18:27.590Z,19.33
2022-11-20T00:20:55.254Z,13.10
2022-11-20T00:23:22.268Z,19.02
2022-11-20T00:25:49.324Z,14.85
2022-11-20T00:28:16.270Z,18.00
2022-11-20T00:30:43.256Z,15.93
2022-11-20T00:33:10.234Z,15.73
2022-11-20T00:35:37.126Z,15.48
2022-11-20T00:38:04.117Z,16.52
2022-11-20T00:40:31.138Z,21.35
2022-11-20T00:42:58.057Z,15.93
2022-11-20T00:45:25.044Z,16.10
2022-11-20T00:47:51.975Z,15.40
2022-11-20T00:50:19.180Z,16.20
2022-11-20T00:52:46.191Z,16.05
2022-11-20T00:55:13.201Z,16.48
2022-11-20T00:57:40.215Z,17.70
2022-11-20T01:00:07.919Z,17.08
2022-11-20T01:02:34.914Z,16.50
2022-11-20T01:05:01.893Z,16.67
2022-11-20T01:07:28.895Z,18.10
2022-11-20T01:09:55.890Z,16.45
2022-11-20T01:12:22.873Z,15.48
2022-11-20T01:14:49.886Z,19.58
2022-11-20T01:17:16.811Z,16.73
2022-11-20T01:19:43.717Z,20.65
2022-11-20T01:22:10.624Z,19.20
2022-11-20T01:24:37.488Z,18.63
2022-11-20T01:27:04.408Z,20.50
2022-11-20T01:29:31.533Z,17.75
2022-11-20T01:31:58.512Z,22.23
2022-11-20T01:34:26.164Z,18.90
2022-11-20T01:36:54.616Z,16.75
2022-11-20T01:39:24.779Z,16.33
2022-11-20T01:42:11.664Z,19.98
2022-11-20T01:44:52.880Z,21.15
2022-11-20T01:47:35.094Z,17.63
2022-11-20T01:50:25.908Z,17.98
2022-11-20T01:53:05.003Z,18.98
2022-11-20T01:55:41.139Z,17.75
2022-11-20T01:58:08.464Z,18.45
2022-11-20T02:00:36.169Z,17.85
2022-11-20T02:03:08.352Z,18.10
2022-11-20T02:05:37.987Z,16.08
2022-11-20T02:08:06.887Z,17.35
2022-11-20T02:10:35.384Z,17.10
2022-11-20T02:13:20.922Z,18.05
2022-11-20T02:15:48.570Z,16.50
2022-11-20T02:18:18.616Z,23.33
2022-11-20T02:20:53.825Z,17.25
2022-11-20T02:23:52.782Z,18.80
2022-11-20T02:26:22.705Z,20.48
2022-11-20T02:28:50.099Z,19.15
2022-11-20T02:31:17.698Z,18.65
2022-11-20T02:33:44.666Z,15.68
2022-11-20T02:36:16.388Z,18.25
2022-11-20T02:38:45.108Z,18.08
2022-11-20T02:41:12.159Z,16.58
2022-11-20T02:43:39.097Z,17.25
2022-11-20T02:46:08.609Z,19.20
2022-11-20T02:48:35.913Z,18.45
2022-11-20T02:51:03.297Z,19.42
2022-11-20T02:53:30.273Z,19.08
2022-11-20T02:55:57.511Z,19.38
2022-11-20T02:58:24.509Z,21.70
2022-11-20T03:00:51.617Z,19.90
2022-11-20T03:03:18.763Z,19.55
2022-11-20T03:05:45.687Z,16.83
2022-11-20T03:08:12.661Z,18.48
2022-11-20T03:10:39.663Z,17.67
2022-11-20T03:13:06.693Z,20.70
2022-11-20T03:15:33.753Z,18.88
2022-11-20T03:18:00.853Z,18.83
2022-11-20T03:20:27.810Z,17.50
2022-11-20T03:22:56.206Z,17.77
2022-11-20T03:25:23.814Z,17.63
2022-11-20T03:27:50.793Z,23.13
2022-11-20T03:30:17.853Z,21.75
2022-11-20T03:32:44.766Z,21.05
2022-11-20T03:35:11.787Z,15.70
2022-11-20T03:37:38.813Z,18.10
2022-11-20T03:40:06.649Z,15.90
2022-11-20T03:42:46.212Z,18.98
2022-11-20T03:45:18.045Z,20.85
2022-11-20T03:47:46.631Z,20.98
2022-11-20T03:50:15.543Z,20.67
2022-11-20T03:52:42.580Z,17.27
2022-11-20T03:55:10.291Z,17.92
2022-11-20T03:57:37.271Z,19.48
2022-11-20T04:00:05.896Z,17.50
2022-11-20T04:02:32.960Z,18.20
2022-11-20T04:04:59.976Z,16.45
2022-11-20T04:07:27.045Z,21.10
2022-11-20T04:09:54.030Z,17.33
2022-11-20T04:12:21.018Z,20.63
2022-11-20T04:14:47.993Z,18.02
2022-11-20T04:17:14.982Z,18.95
2022-11-20T04:19:41.958Z,23.65
2022-11-20T04:22:09.638Z,18.45
2022-11-20T04:24:36.625Z,21.42
2022-11-20T04:27:03.580Z,17.92
2022-11-20T04:29:30.537Z,18.33
2022-11-20T04:31:57.522Z,21.60
2022-11-20T04:34:24.530Z,19.10
2022-11-20T04:36:51.502Z,19.05
2022-11-20T04:39:18.886Z,17.60
2022-11-20T04:41:46.297Z,20.92
2022-11-20T04:44:13.347Z,17.40
2022-11-20T04:46:42.294Z,19.13
2022-11-20T04:49:09.823Z,19.00
2022-11-20T04:51:37.052Z,18.98
2022-11-20T04:54:04.343Z,27.35
2022-11-20T04:56:31.391Z,22.45
2022-11-20T04:59:02.580Z,17.77
2022-11-20T05:01:29.980Z,18.58
2022-11-20T05:03:57.088Z,19.80
2022-11-20T05:06:26.357Z,21.17
2022-11-20T05:08:53.342Z,21.23
2022-11-20T05:11:22.291Z,22.83
2022-11-20T05:13:50.618Z,20.98
2022-11-20T05:16:20.827Z,22.60
2022-11-20T05:18:48.707Z,21.02
2022-11-20T05:21:16.490Z,22.05
2022-11-20T05:23:44.994Z,23.85
2022-11-20T05:26:25.307Z,21.30
2022-11-20T05:28:53.594Z,25.02
2022-11-20T05:31:28.141Z,21.77
2022-11-20T05:33:57.177Z,23.70
2022-11-20T05:36:24.363Z,21.98
2022-11-20T05:38:52.334Z,20.13
2022-11-20T05:41:22.386Z,20.95
2022-11-20T05:43:51.012Z,21.70
2022-11-20T05:46:27.695Z,23.75
2022-11-20T05:48:56.727Z,22.35
2022-11-20T05:51:23.771Z,21.17
2022-11-20T05:53:50.861Z,20.77
2022-11-20T05:56:20.912Z,20.75
2022-11-20T05:58:48.659Z,22.33
2022-11-20T06:01:26.772Z,20.25
2022-11-20T06:03:55.297Z,20.92
2022-11-20T06:06:23.116Z,28.15
2022-11-20T06:08:50.204Z,24.52
2022-11-20T06:11:18.418Z,21.27
2022-11-20T06:13:46.826Z,25.02
2022-11-20T06:16:17.326Z,23.85
2022-11-20T06:18:44.360Z,24.38
2022-11-20T06:21:17.125Z,24.70
2022-11-20T06:23:46.284Z,26.38
2022-11-20T06:26:16.366Z,25.00
2022-11-20T06:28:43.416Z,22.88
2022-11-20T06:31:13.465Z,26.50
2022-11-20T06:33:40.671Z,24.27
2022-11-20T06:36:10.839Z,20.00
2022-11-20T06:38:39.348Z,20.52
2022-11-20T06:41:13.301Z,23.80
2022-11-20T06:43:40.573Z,20.55
2022-11-20T06:46:07.570Z,23.88
2022-11-20T06:48:34.607Z,21.92
2022-11-20T06:51:07.851Z,26.25
2022-11-20T06:53:36.030Z,24.15
2022-11-20T06:56:03.647Z,28.45
2022-11-20T06:58:32.670Z,22.95
2022-11-20T07:01:01.007Z,21.58
2022-11-20T07:03:28.318Z,22.90
2022-11-20T07:05:59.800Z,21.38
2022-11-20T07:08:26.935Z,24.00
2022-11-20T07:10:54.362Z,22.08
2022-11-20T07:13:21.363Z,23.10
2022-11-20T07:15:48.305Z,26.88
2022-11-20T07:18:15.260Z,27.45
2022-11-20T07:20:42.397Z,24.98
2022-11-20T07:23:09.369Z,31.00
2022-11-20T07:25:37.217Z,24.70
2022-11-20T07:28:04.803Z,24.80
2022-11-20T07:30:32.183Z,20.08
2022-11-20T07:32:59.285Z,24.00
2022-11-20T07:35:26.375Z,18.55
2022-11-20T07:37:53.369Z,18.50
2022-11-20T07:40:21.029Z,27.33
2022-11-20T07:42:56.242Z,23.05
2022-11-20T07:45:24.832Z,20.13
2022-11-20T07:47:52.265Z,24.85
2022-11-20T07:50:20.426Z,20.38
2022-11-20T07:52:48.145Z,24.80
2022-11-20T07:55:15.838Z,23.98
2022-11-20T07:57:42.924Z,23.33
2022-11-20T08:00:12.053Z,24.88
2022-11-20T08:02:42.585Z,23.20
2022-11-20T08:05:11.129Z,24.73
2022-11-20T08:07:43.367Z,28.00
2022-11-20T08:10:13.488Z,24.52
2022-11-20T08:13:07.544Z,24.33
2022-11-20T08:15:35.018Z,21.75
2022-11-20T08:20:54.048Z,24.67
2022-11-20T08:23:21.099Z,21.65
2022-11-20T08:25:51.036Z,22.83
2022-11-20T08:28:21.142Z,22.48
2022-11-20T08:30:49.168Z,24.65
2022-11-20T08:33:16.221Z,23.58
2022-11-20T08:35:44.027Z,22.33
2022-11-20T08:38:11.076Z,22.67
2022-11-20T08:40:38.008Z,20.77
2022-11-20T08:43:05.537Z,25.23
2022-11-20T08:45:35.068Z,21.33
2022-11-20T08:48:05.473Z,25.40
2022-11-20T08:50:34.184Z,22.65
2022-11-20T08:53:07.516Z,27.98
2022-11-20T08:55:36.732Z,25.95
2022-11-20T08:58:07.909Z,22.95
2022-11-20T09:00:35.700Z,23.95
2022-11-20T09:03:03.177Z,23.10
2022-11-20T09:05:30.832Z,22.83
2022-11-20T09:07:58.658Z,26.00
2022-11-20T09:10:26.778Z,22.75
2022-11-20T09:12:56.384Z,20.20
2022-11-20T09:15:24.221Z,22.75
2022-11-20T09:17:58.451Z,21.42
2022-11-20T09:20:26.937Z,21.30
2022-11-20T09:22:53.876Z,23.70
2022-11-20T09:25:20.894Z,21.05
2022-11-20T09:27:48.168Z,25.80
2022-11-20T09:30:16.199Z,24.20
2022-11-20T09:32:44.183Z,21.85
2022-11-20T09:35:11.918Z,22.00
2022-11-20T09:37:39.170Z,26.98
2022-11-20T09:40:07.039Z,26.17
2022-11-20T09:42:38.687Z,24.30
2022-11-20T09:45:33.208Z,21.42
2022-11-20T09:48:22.554Z,23.25
2022-11-20T09:51:17.452Z,26.23
2022-11-20T09:54:09.962Z,23.30
2022-11-20T09:56:42.222Z,22.60
2022-11-20T09:59:23.507Z,24.05
2022-11-20T10:01:51.596Z,28.60
2022-11-20T10:04:21.774Z,23.63
2022-11-20T10:07:31.992Z,23.42
2022-11-20T10:10:00.588Z,24.88
2022-11-20T10:12:46.015Z,26.42
2022-11-20T10:15:39.559Z,26.80
2022-11-20T10:18:28.636Z,25.55
2022-11-20T10:21:10.823Z,24.75
2022-11-20T10:24:12.778Z,21.95
2022-11-20T10:26:39.677Z,27.98
2022-11-20T10:29:12.651Z,24.00
2022-11-20T10:31:43.254Z,27.58
2022-11-20T10:34:26.048Z,29.33
2022-11-20T10:37:25.096Z,24.70
2022-11-20T10:40:00.048Z,26.77
2022-11-20T10:42:48.346Z,29.38
2022-11-20T10:45:20.818Z,27.55
2022-11-20T10:47:47.966Z,30.02
2022-11-20T10:50:22.421Z,23.63
2022-11-20T10:53:03.768Z,25.88
2022-11-20T10:55:55.162Z,25.52
2022-11-20T10:58:51.315Z,26.55
2022-11-20T11:01:24.561Z,28.50
2022-11-20T11:03:53.746Z,28.38
2022-11-20T11:06:29.590Z,26.73
2022-11-20T11:09:00.190Z,26.73
2022-11-20T11:11:31.269Z,25.48
2022-11-20T11:14:08.182Z,26.92
2022-11-20T11:16:35.498Z,24.55
2022-11-20T11:19:14.710Z,26.83
2022-11-20T11:21:55.592Z,26.13
2022-11-20T11:24:42.281Z,26.88
2022-11-20T11:27:18.969Z,25.88
2022-11-20T11:29:47.200Z,25.75
2022-11-20T11:32:17.013Z,27.88
2022-11-20T11:34:44.464Z,24.92
2022-11-20T11:37:18.687Z,29.45
2022-11-20T11:39:55.046Z,26.52
2022-11-20T11:42:31.618Z,30.02
2022-11-20T11:45:07.157Z,27.67
2022-11-20T11:47:37.316Z,25.10
2022-11-20T11:50:10.387Z,25.65
2022-11-20T11:52:59.568Z,28.38
2022-11-20T11:55:49.045Z,27.58
2022-11-20T11:58:34.342Z,32.63
2022-11-20T12:01:16.345Z,28.60
2022-11-20T12:04:12.985Z,28.65
2022-11-20T12:06:43.873Z,28.75
2022-11-20T12:09:13.220Z,30.20
2022-11-20T12:11:40.260Z,25.58
2022-11-20T12:14:35.639Z,25.17
2022-11-20T12:17:08.905Z,28.00
2022-11-20T12:19:36.489Z,28.20
2022-11-20T12:22:47.053Z,28.63
2022-11-20T12:25:30.954Z,38.72
2022-11-20T12:28:20.715Z,24.40
2022-11-20T12:31:09.993Z,24.80
2022-11-20T12:33:37.332Z,24.33
2022-11-20T12:36:26.497Z,26.48
2022-11-20T12:39:10.026Z,29.35
2022-11-20T12:42:23.028Z,25.48
2022-11-20T12:45:11.311Z,26.15
2022-11-20T12:47:52.968Z,24.05
2022-11-20T12:50:32.568Z,28.52
2022-11-20T12:53:23.952Z,27.75
2022-11-20T12:55:55.371Z,26.38
2022-11-20T12:58:34.303Z,27.65
2022-11-20T13:01:07.102Z,25.98
2022-11-20T13:03:51.104Z,31.88
2022-11-20T13:06:20.435Z,28.55
2022-11-20T13:08:59.204Z,27.83
2022-11-20T13:11:42.689Z,30.73
2022-11-20T13:14:42.571Z,26.38
2022-11-20T13:17:28.419Z,28.48
2022-11-20T13:19:59.919Z,26.85
2022-11-20T13:22:44.215Z,25.70
2022-11-20T13:25:24.039Z,30.27
2022-11-20T13:27:51.856Z,30.83
2022-11-20T13:30:22.366Z,33.33
2022-11-20T13:33:22.688Z,30.40
2022-11-20T13:36:09.342Z,29.70
2022-11-20T13:38:50.720Z,31.50
2022-11-20T13:41:39.217Z,29.13
2022-11-20T13:44:32.565Z,31.42
2022-11-20T13:47:00.276Z,29.13
2022-11-20T13:49:45.145Z,32.80
2022-11-20T13:52:35.570Z,35.47
2022-11-20T13:55:21.314Z,32.88
2022-11-20T13:57:55.008Z,25.48
2022-11-20T14:00:25.878Z,31.42
2022-11-20T14:03:08.610Z,31.73
2022-11-20T14:05:40.814Z,30.80
2022-11-20T14:08:15.680Z,35.17
2022-11-20T14:10:43.670Z,31.90
2022-11-20T14:13:22.210Z,32.40
2022-11-20T14:15:58.080Z,30.98
2022-11-20T14:18:28.785Z,35.17
2022-11-20T14:20:56.261Z,35.33
2022-11-20T14:23:30.514Z,35.28
2022-11-20T14:25:58.958Z,29.77
2022-11-20T14:28:31.949Z,30.15
2022-11-20T14:30:59.884Z,31.50
2022-11-20T14:33:29.074Z,36.55
2022-11-20T14:35:59.539Z,32.67
2022-11-20T14:38:30.606Z,31.70
2022-11-20T14:41:09.292Z,33.35
2022-11-20T14:43:39.231Z,31.70
2022-11-20T14:46:11.192Z,38.13
2022-11-20T14:49:11.885Z,32.80
2022-11-20T14:51:48.188Z,33.17
2022-11-20T14:54:23.380Z,32.45
2022-11-20T14:57:03.015Z,31.52
2022-11-20T14:59:36.102Z,31.45
2022-11-20T15:02:10.470Z,29.17
2022-11-20T15:04:52.992Z,31.52
2022-11-20T15:07:35.462Z,35.25
2022-11-20T15:10:13.471Z,34.85
2022-11-20T15:13:09.768Z,27.58
2022-11-20T15:15:50.402Z,34.33
2022-11-20T15:18:22.312Z,29.48
2022-11-20T15:20:50.630Z,31.98
2022-11-20T15:23:21.276Z,31.40
2022-11-20T15:25:50.728Z,32.67
2022-11-20T15:28:30.779Z,37.58
2022-11-20T15:30:58.190Z,37.22
2022-11-20T15:33:25.983Z,37.78
2022-11-20T15:35:55.544Z,31.73
2022-11-20T15:38:23.560Z,40.25
2022-11-20T15:40:52.465Z,34.45
2022-11-20T15:43:20.404Z,39.95
2022-11-20T15:45:53.345Z,37.17
2022-11-20T15:48:22.711Z,36.10
2022-11-20T15:50:59.359Z,33.72
2022-11-20T15:53:27.109Z,37.03
2022-11-20T15:55:55.108Z,33.95
2022-11-20T15:58:24.507Z,36.95
2022-11-20T16:00:52.636Z,37.03
2022-11-20T16:03:20.937Z,33.53
2022-11-20T16:05:48.562Z,32.72
2022-11-20T16:08:16.326Z,37.35
2022-11-20T16:10:44.204Z,29.13
2022-11-20T16:13:37.887Z,35.45
2022-11-20T16:16:12.358Z,34.88
2022-11-20T16:18:40.266Z,33.83
2022-11-20T16:21:14.882Z,36.38
2022-11-20T16:23:44.063Z,35.50
2022-11-20T16:26:17.530Z,41.40
2022-11-20T16:28:46.473Z,40.70
2022-11-20T16:31:17.649Z,32.35
2022-11-20T16:33:51.859Z,34.88
2022-11-20T16:36:21.608Z,35.17
2022-11-20T16:38:54.793Z,39.28
2022-11-20T16:41:23.246Z,32.92
2022-11-20T16:43:53.541Z,29.88
2022-11-20T16:46:24.416Z,31.08
2022-11-20T16:49:01.430Z,32.15
2022-11-20T16:51:31.403Z,31.45
2022-11-20T16:54:03.242Z,33.35
2022-11-20T16:56:33.677Z,26.30
2022-11-20T16:59:03.381Z,30.33
2022-11-20T17:01:32.590Z,29.45
2022-11-20T17:04:06.700Z,33.45
2022-11-20T17:06:41.234Z,31.88
2022-11-20T17:09:10.031Z,38.72
2022-11-20T17:11:38.311Z,42.17
2022-11-20T17:14:07.666Z,34.63
2022-11-20T17:16:36.437Z,39.70
2022-11-20T17:19:05.977Z,36.58
2022-11-20T17:21:39.437Z,38.83
2022-11-20T17:24:10.623Z,37.92
2022-11-20T17:26:40.232Z,35.25
2022-11-20T17:29:12.585Z,47.88
2022-11-20T17:31:40.963Z,39.10
2022-11-20T17:34:11.740Z,35.78
2022-11-20T17:36:45.182Z,38.42
2022-11-20T17:39:16.262Z,32.33
2022-11-20T17:41:44.114Z,27.88
2022-11-20T17:44:13.180Z,38.40
2022-11-20T17:46:41.704Z,33.75
2022-11-20T17:49:09.181Z,34.75
2022-11-20T17:51:37.267Z,37.65
2022-11-20T17:54:08.610Z,41.15
2022-11-20T17:56:55.251Z,32.60
2022-11-20T17:59:24.942Z,34.88
2022-11-20T18:01:52.682Z,32.55
2022-11-20T18:04:25.355Z,37.80
2022-11-20T18:06:53.613Z,33.53
2022-11-20T18:09:21.223Z,29.17
2022-11-20T18:11:48.540Z,32.63
2022-11-20T18:14:29.119Z,32.45
2022-11-20T18:17:03.745Z,31.20
2022-11-20T18:19:42.716Z,27.73
2022-11-20T18:22:24.136Z,30.63
2022-11-20T18:24:52.189Z,37.00
2022-11-20T18:27:24.781Z,36.22
2022-11-20T18:29:52.990Z,39.88
2022-11-20T18:32:22.745Z,37.17
2022-11-20T18:34:54.159Z,43.83
2022-11-20T18:37:22.704Z,45.90
2022-11-20T18:39:51.170Z,41.53
2022-11-20T18:42:37.693Z,56.38
2022-11-20T18:45:06.866Z,40.15
2022-11-20T18:47:38.603Z,43.85
2022-11-20T18:50:09.178Z,43.13
2022-11-20T18:52:44.999Z,43.55
2022-11-20T18:55:13.846Z,43.45
2022-11-20T18:57:42.075Z,33.08
2022-11-20T19:00:11.524Z,36.92
2022-11-20T19:02:42.785Z,36.60
2022-11-20T19:05:12.452Z,34.58
2022-11-20T19:07:41.563Z,45.05
2022-11-20T19:10:13.747Z,41.13
2022-11-20T19:12:42.454Z,41.20
2022-11-20T19:15:12.348Z,39.10
2022-11-20T19:17:40.527Z,41.08
2022-11-20T19:20:08.920Z,40.28
2022-11-20T19:22:36.872Z,38.65
2022-11-20T19:25:05.344Z,38.08
2022-11-20T19:27:33.378Z,44.58
2022-11-20T19:30:03.846Z,38.83
2022-11-20T19:32:33.301Z,40.47
2022-11-20T19:35:01.839Z,35.72
2022-11-20T19:37:30.045Z,39.20
2022-11-20T19:40:02.232Z,40.65
2022-11-20T19:42:31.297Z,40.45
2022-11-20T19:44:59.276Z,38.30
2022-11-20T19:47:45.979Z,41.35
2022-11-20T19:50:16.624Z,41.13
2022-11-20T19:52:44.605Z,39.92
2022-11-20T19:55:12.749Z,42.25
2022-11-20T19:57:40.650Z,31.63
2022-11-20T20:00:09.909Z,39.55
2022-11-20T20:02:37.814Z,39.78
2022-11-20T20:05:08.737Z,40.97
2022-11-20T20:07:36.897Z,30.27
2022-11-20T20:10:05.013Z,35.63
2022-11-20T20:12:32.657Z,40.33
2022-11-20T20:15:00.778Z,40.25
2022-11-20T20:17:28.804Z,43.00
2022-11-20T20:19:57.085Z,44.92
2022-11-20T20:22:24.953Z,40.28
2022-11-20T20:24:52.815Z,38.95
2022-11-20T20:27:20.392Z,59.80
2022-11-20T20:29:48.227Z,51.17
2022-11-20T20:32:16.083Z,49.38
2022-11-20T20:34:47.532Z,46.60
2022-11-20T20:37:15.586Z,41.58
2022-11-20T20:39:43.126Z,39.20
2022-11-20T20:42:10.409Z,42.70
2022-11-20T20:44:56.792Z,45.78
2022-11-20T20:47:24.829Z,48.22
2022-11-20T20:49:56.235Z,41.85
2022-11-20T20:52:27.894Z,42.55
2022-11-20T20:54:56.029Z,37.38
2022-11-20T20:57:25.176Z,43.22
2022-11-20T20:59:56.006Z,37.67
2022-11-20T21:02:24.209Z,37.30
2022-11-20T21:04:52.967Z,35.63
2022-11-20T21:07:20.518Z,41.60
2022-11-20T21:09:47.978Z,35.63
2022-11-20T21:12:15.344Z,29.05
2022-11-20T21:14:42.861Z,33.00
2022-11-20T21:17:15.138Z,31.40
2022-11-20T21:19:43.401Z,33.40
2022-11-20T21:22:10.701Z,26.67
2022-11-20T21:24:37.782Z,30.98
2022-11-20T21:27:07.326Z,26.13
2022-11-20T21:29:34.558Z,37.53
2022-11-20T21:32:02.102Z,29.95
2022-11-20T21:34:29.420Z,34.22
2022-11-20T21:36:56.369Z,30.48
2022-11-20T21:39:23.424Z,33.08
2022-11-20T21:41:50.729Z,30.98
2022-11-20T21:44:33.333Z,30.08
2022-11-20T21:47:00.828Z,29.80
2022-11-20T21:49:27.982Z,26.48
2022-11-20T21:51:55.147Z,29.67
2022-11-20T21:54:22.535Z,29.10
2022-11-20T21:56:50.022Z,28.27
2022-11-20T21:59:17.020Z,18.00
2022-11-20T22:01:44.075Z,17.70
2022-11-20T22:04:15.494Z,20.25
2022-11-20T22:06:42.543Z,16.10
2022-11-20T22:09:10.670Z,13.15
2022-11-20T22:11:37.603Z,17.35
2022-11-20T22:14:23.551Z,17.15
2022-11-20T22:16:52.600Z,18.40
2022-11-20T22:19:21.463Z,16.67
2022-11-20T22:21:49.438Z,16.55
2022-11-20T22:24:18.495Z,15.40
2022-11-20T22:26:45.500Z,15.65
2022-11-20T22:29:20.972Z,19.15
2022-11-20T22:31:48.419Z,22.98
2022-11-20T22:34:15.541Z,15.40
2022-11-20T22:36:42.741Z,19.13
2022-11-20T22:39:09.718Z,20.83
2022-11-20T22:41:36.759Z,18.38
2022-11-20T22:44:06.397Z,15.38
2022-11-20T22:46:35.934Z,13.82
2022-11-20T22:49:05.967Z,17.40
2022-11-20T22:51:36.013Z,16.85
2022-11-20T22:54:03.768Z,16.30
2022-11-20T22:56:31.264Z,16.08
2022-11-20T22:58:58.226Z,16.35
2022-11-20T23:01:34.499Z,15.30
2022-11-20T23:04:04.529Z,20.83
2022-11-20T23:06:35.827Z,24.77
2022-11-20T23:09:04.424Z,19.17
2022-11-20T23:11:32.273Z,20.08
2022-11-20T23:14:01.600Z,20.33
2022-11-20T23:16:30.537Z,18.25
2022-11-20T23:18:59.529Z,16.88
2022-11-20T23:21:27.057Z,21.45
2022-11-20T23:23:56.715Z,19.13
2022-11-20T23:26:27.238Z,17.60
2022-11-20T23:28:56.353Z,22.40
2022-11-20T23:31:24.242Z,24.73
2022-11-20T23:33:51.439Z,19.40
2022-11-20T23:36:18.560Z,22.48
2022-11-20T23:38:45.509Z,20.90
2022-11-20T23:41:13.675Z,21.25
2022-11-20T23:43:40.873Z,20.92
2022-11-20T23:46:10.434Z,16.75
2022-11-20T23:48:39.928Z,20.38
2022-11-20T23:51:08.079Z,20.95
2022-11-20T23:53:35.299Z,22.10
2022-11-20T23:56:04.215Z,20.13
2022-11-20T23:58:33.614Z,24.95
